createdAt,value
2023-05-14T00:02:31.172Z,100.00
2023-05-14T00:04:59.332Z,100.00
2023-05-14T00:07:31.002Z,100.00
2023-05-14T00:10:00.248Z,100.00
2023-05-14T00:12:28.387Z,100.00
2023-05-14T00:15:06.883Z,100.00
2023-05-14T00:17:50.646Z,100.00
2023-05-14T00:20:18.807Z,100.00
2023-05-14T00:22:55.528Z,100.00
2023-05-14T00:25:30.833Z,100.00
2023-05-14T00:28:01.246Z,100.00
2023-05-14T00:30:50.142Z,100.00
2023-05-14T00:33:18.417Z,100.00
2023-05-14T00:35:49.309Z,100.00
2023-05-14T00:38:30.805Z,100.00
2023-05-14T00:40:59.007Z,100.00
2023-05-14T00:43:27.091Z,100.00
2023-05-14T00:45:55.953Z,100.00
2023-05-14T00:48:27.093Z,100.00
2023-05-14T00:51:02.235Z,100.00
2023-05-14T00:53:40.558Z,100.00
2023-05-14T00:56:14.659Z,100.00
2023-05-14T00:58:42.854Z,100.00
2023-05-14T01:01:15.357Z,100.00
2023-05-14T01:03:48.263Z,100.00
2023-05-14T01:06:25.679Z,100.00
2023-05-14T01:08:59.606Z,100.00
2023-05-14T01:11:51.011Z,100.00
2023-05-14T01:14:32.073Z,100.00
2023-05-14T01:17:02.738Z,100.00
2023-05-14T01:19:43.208Z,100.00
2023-05-14T01:22:14.322Z,100.00
2023-05-14T01:24:43.885Z,100.00
2023-05-14T01:27:35.952Z,100.00
2023-05-14T01:30:32.524Z,100.00
2023-05-14T01:33:03.182Z,100.00
2023-05-14T01:35:35.104Z,100.00
2023-05-14T01:38:15.228Z,100.00
2023-05-14T01:40:45.226Z,100.00
2023-05-14T01:43:16.273Z,100.00
2023-05-14T01:45:44.947Z,100.00
2023-05-14T01:48:19.064Z,100.00
2023-05-14T01:50:49.213Z,100.00
2023-05-14T01:53:17.201Z,100.00
2023-05-14T01:55:45.296Z,100.00
2023-05-14T01:58:13.367Z,100.00
2023-05-14T02:00:45.217Z,100.00
2023-05-14T02:03:13.297Z,100.00
2023-05-14T02:05:42.102Z,100.00
2023-05-14T02:08:10.124Z,100.00
2023-05-14T02:10:38.734Z,100.00
2023-05-14T02:13:06.829Z,100.00
2023-05-14T02:15:35.221Z,100.00
2023-05-14T02:18:05.956Z,100.00
2023-05-14T02:20:35.271Z,100.00
2023-05-14T02:23:05.606Z,100.00
2023-05-14T02:25:35.077Z,100.00
2023-05-14T02:28:04.080Z,100.00
2023-05-14T02:30:34.474Z,100.00
2023-05-14T02:33:03.225Z,100.00
2023-05-14T02:35:31.434Z,100.00
2023-05-14T02:38:13.123Z,100.00
2023-05-14T02:40:43.533Z,100.00
2023-05-14T02:43:12.556Z,100.00
2023-05-14T02:45:43.133Z,100.00
2023-05-14T02:48:19.874Z,100.00
2023-05-14T02:50:48.563Z,100.00
2023-05-14T02:53:21.320Z,100.00
2023-05-14T02:55:51.663Z,100.00
2023-05-14T02:58:25.047Z,100.00
2023-05-14T03:00:56.641Z,100.00
2023-05-14T03:03:36.617Z,100.00
2023-05-14T03:06:05.199Z,100.00
2023-05-14T03:08:44.237Z,100.00
2023-05-14T03:11:14.282Z,100.00
2023-05-14T03:13:42.298Z,100.00
2023-05-14T03:16:10.849Z,100.00
2023-05-14T03:18:39.492Z,100.00
2023-05-14T03:21:12.301Z,100.00
2023-05-14T03:23:40.250Z,100.00
2023-05-14T03:26:08.398Z,100.00
2023-05-14T03:28:36.435Z,100.00
2023-05-14T03:31:04.433Z,100.00
2023-05-14T03:33:32.402Z,100.00
2023-05-14T03:36:00.342Z,100.00
2023-05-14T03:38:30.669Z,100.00
2023-05-14T03:41:07.803Z,100.00
2023-05-14T03:43:43.296Z,100.00
2023-05-14T03:46:11.296Z,100.00
2023-05-14T03:48:41.180Z,100.00
2023-05-14T03:51:10.555Z,100.00
2023-05-14T03:53:38.411Z,100.00
2023-05-14T03:56:10.644Z,100.00
2023-05-14T03:58:48.783Z,100.00
2023-05-14T04:01:23.729Z,100.00
2023-05-14T04:03:54.402Z,100.00
2023-05-14T04:06:27.495Z,100.00
2023-05-14T04:08:56.381Z,100.00
2023-05-14T04:11:24.489Z,100.00
2023-05-14T04:13:55.103Z,100.00
2023-05-14T04:16:26.502Z,100.00
2023-05-14T04:19:01.179Z,100.00
2023-05-14T04:21:29.340Z,100.00
2023-05-14T04:24:04.574Z,100.00
2023-05-14T04:26:44.795Z,100.00
2023-05-14T04:29:18.046Z,100.00
2023-05-14T04:31:49.495Z,100.00
2023-05-14T04:34:18.926Z,100.00
2023-05-14T04:36:46.988Z,100.00
2023-05-14T04:39:17.907Z,100.00
2023-05-14T04:41:47.378Z,100.00
2023-05-14T04:44:15.995Z,99.47
2023-05-14T04:46:44.106Z,98.53
2023-05-14T04:49:12.365Z,96.88
2023-05-14T04:51:43.649Z,96.37
2023-05-14T04:54:14.465Z,94.46
2023-05-14T04:56:42.608Z,92.58
2023-05-14T04:59:18.941Z,90.47
2023-05-14T05:01:50.407Z,90.37
2023-05-14T05:04:23.968Z,89.30
2023-05-14T05:06:55.234Z,88.99
2023-05-14T05:09:26.883Z,87.76
2023-05-14T05:11:57.358Z,86.67
2023-05-14T05:14:36.000Z,85.49
2023-05-14T05:17:03.967Z,84.49
2023-05-14T05:19:42.427Z,81.50
2023-05-14T05:22:15.174Z,81.75
2023-05-14T05:24:43.241Z,81.32
2023-05-14T05:27:11.263Z,82.41
2023-05-14T05:29:45.067Z,82.72
2023-05-14T05:32:21.629Z,81.43
2023-05-14T05:34:49.807Z,81.20
2023-05-14T05:37:17.745Z,81.67
2023-05-14T05:39:45.690Z,81.33
2023-05-14T05:42:13.658Z,81.30
2023-05-14T05:44:41.653Z,82.36
2023-05-14T05:47:09.729Z,82.91
2023-05-14T05:49:37.840Z,83.31
2023-05-14T05:52:05.655Z,84.35
2023-05-14T05:54:33.574Z,84.61
2023-05-14T05:57:02.334Z,84.41
2023-05-14T05:59:30.709Z,85.31
2023-05-14T06:01:58.715Z,85.87
2023-05-14T06:04:26.730Z,86.08
2023-05-14T06:06:54.582Z,86.03
2023-05-14T06:09:22.510Z,85.97
2023-05-14T06:11:50.503Z,85.23
2023-05-14T06:14:18.591Z,84.99
2023-05-14T06:16:47.816Z,84.49
2023-05-14T06:19:15.910Z,85.00
2023-05-14T06:21:44.418Z,84.20
2023-05-14T06:24:13.535Z,83.39
2023-05-14T06:26:41.533Z,83.10
2023-05-14T06:29:09.434Z,83.64
2023-05-14T06:31:37.688Z,83.30
2023-05-14T06:34:05.799Z,83.50
2023-05-14T06:36:33.793Z,82.22
2023-05-14T06:39:02.047Z,79.89
2023-05-14T06:41:30.978Z,78.37
2023-05-14T06:43:58.895Z,75.59
2023-05-14T06:46:39.826Z,76.13
2023-05-14T06:49:08.165Z,76.03
2023-05-14T06:51:44.691Z,76.35
2023-05-14T06:54:15.061Z,76.69
2023-05-14T06:56:50.460Z,75.71
2023-05-14T06:59:18.300Z,76.81
2023-05-14T07:01:46.361Z,76.11
2023-05-14T07:04:14.599Z,74.51
2023-05-14T07:06:47.182Z,74.15
2023-05-14T07:09:17.337Z,73.50
2023-05-14T07:11:45.290Z,72.92
2023-05-14T07:14:13.402Z,71.95
2023-05-14T07:16:42.367Z,71.12
2023-05-14T07:19:17.084Z,71.34
2023-05-14T07:25:02.818Z,70.01
2023-05-14T07:27:38.450Z,69.09
2023-05-14T07:30:12.704Z,69.19
2023-05-14T07:32:44.639Z,68.72
2023-05-14T07:35:12.590Z,67.70
2023-05-14T07:37:40.621Z,67.35
2023-05-14T07:40:17.890Z,68.40
2023-05-14T07:43:08.147Z,66.88
2023-05-14T07:45:56.804Z,67.57
2023-05-14T07:48:24.869Z,68.79
2023-05-14T07:50:52.886Z,69.87
2023-05-14T07:53:27.385Z,69.53
2023-05-14T07:56:00.046Z,68.81
2023-05-14T07:58:31.031Z,68.60
2023-05-14T08:01:21.812Z,64.15
2023-05-14T08:07:43.482Z,62.77
2023-05-14T08:10:13.847Z,62.39
2023-05-14T08:12:51.676Z,62.45
2023-05-14T08:15:44.215Z,61.10
2023-05-14T08:18:14.160Z,60.79
2023-05-14T08:20:45.685Z,61.86
2023-05-14T08:23:17.260Z,61.26
2023-05-14T08:25:59.569Z,61.66
2023-05-14T08:28:28.002Z,61.92
2023-05-14T08:30:57.415Z,61.81
2023-05-14T08:33:26.655Z,60.19
2023-05-14T08:39:44.641Z,59.25
2023-05-14T08:42:17.031Z,58.47
2023-05-14T08:44:49.862Z,58.84
2023-05-14T08:47:38.582Z,56.60
2023-05-14T08:50:08.396Z,56.31
2023-05-14T08:52:50.453Z,52.60
2023-05-14T08:55:52.008Z,52.06
2023-05-14T08:58:37.335Z,49.51
2023-05-14T09:01:26.167Z,50.22
2023-05-14T09:03:55.089Z,50.42
2023-05-14T09:06:29.391Z,50.64
2023-05-14T09:09:05.925Z,49.58
2023-05-14T09:11:43.888Z,47.88
2023-05-14T09:14:13.133Z,47.38
2023-05-14T09:16:43.511Z,47.04
2023-05-14T09:19:15.681Z,46.71
2023-05-14T09:21:46.357Z,48.15
2023-05-14T09:24:21.680Z,47.65
2023-05-14T09:27:08.286Z,46.89
2023-05-14T09:29:37.532Z,46.14
2023-05-14T09:32:07.715Z,45.11
2023-05-14T09:34:38.737Z,46.00
2023-05-14T09:37:08.548Z,46.19
2023-05-14T09:39:37.537Z,45.93
2023-05-14T09:42:05.783Z,47.05
2023-05-14T09:44:36.348Z,47.73
2023-05-14T09:47:04.645Z,46.83
2023-05-14T09:49:35.325Z,47.27
2023-05-14T09:52:06.669Z,47.88
2023-05-14T09:54:35.560Z,47.97
2023-05-14T09:57:12.272Z,48.34
2023-05-14T09:59:44.149Z,48.63
2023-05-14T10:02:41.304Z,48.30
2023-05-14T10:05:19.272Z,48.92
2023-05-14T10:07:49.926Z,49.19
2023-05-14T10:10:24.818Z,49.79
2023-05-14T10:12:57.448Z,50.28
2023-05-14T10:15:38.058Z,51.10
2023-05-14T10:18:12.679Z,51.96
2023-05-14T10:20:52.076Z,52.18
2023-05-14T10:23:22.732Z,53.17
2023-05-14T10:26:00.652Z,53.43
2023-05-14T10:28:31.895Z,54.21
2023-05-14T10:31:01.131Z,54.54
2023-05-14T10:33:29.041Z,54.41
2023-05-14T10:36:05.100Z,54.23
2023-05-14T10:38:39.718Z,54.01
2023-05-14T10:44:37.614Z,55.11
2023-05-14T10:47:11.339Z,55.57
2023-05-14T10:50:24.798Z,55.91
2023-05-14T10:53:23.944Z,55.94
2023-05-14T10:55:57.076Z,55.71
2023-05-14T10:58:25.265Z,55.72
2023-05-14T11:01:08.966Z,56.32
2023-05-14T11:03:45.269Z,56.60
2023-05-14T11:10:11.819Z,57.18
2023-05-14T11:12:45.703Z,57.54
2023-05-14T11:15:42.163Z,57.90
2023-05-14T11:18:26.262Z,58.42
2023-05-14T11:21:34.911Z,59.27
2023-05-14T11:24:43.426Z,58.86
2023-05-14T11:27:13.691Z,59.06
2023-05-14T11:29:47.796Z,59.35
2023-05-14T11:36:05.538Z,59.21
2023-05-14T11:39:09.974Z,59.58
2023-05-14T11:42:01.945Z,59.70
2023-05-14T11:44:55.091Z,59.91
2023-05-14T11:47:26.757Z,60.24
2023-05-14T11:49:57.545Z,60.96
2023-05-14T11:53:06.417Z,61.23
2023-05-14T11:55:50.808Z,61.51
2023-05-14T11:58:21.572Z,61.62
2023-05-14T12:00:58.461Z,62.07
2023-05-14T12:03:26.994Z,62.19
2023-05-14T12:05:56.118Z,61.85
2023-05-14T12:08:31.359Z,61.92
2023-05-14T12:11:02.367Z,62.37
2023-05-14T12:13:33.987Z,62.61
2023-05-14T12:16:02.783Z,62.44
2023-05-14T12:18:32.028Z,63.30
2023-05-14T12:21:04.357Z,63.82
2023-05-14T12:23:32.900Z,64.10
2023-05-14T12:26:06.500Z,64.79
2023-05-14T12:28:38.054Z,66.19
2023-05-14T12:31:07.789Z,66.04
2023-05-14T12:33:35.898Z,65.72
2023-05-14T12:36:20.474Z,65.69
2023-05-14T12:38:51.214Z,66.49
2023-05-14T12:41:19.417Z,66.17
2023-05-14T12:43:49.846Z,66.76
2023-05-14T12:46:18.011Z,66.53
2023-05-14T12:48:53.467Z,66.36
2023-05-14T12:51:34.213Z,66.18
2023-05-14T12:54:02.640Z,66.46
2023-05-14T12:56:32.259Z,66.55
2023-05-14T12:59:00.354Z,66.22
2023-05-14T13:01:28.613Z,66.49
2023-05-14T13:04:03.548Z,64.81
2023-05-14T13:06:34.247Z,64.34
2023-05-14T13:09:02.860Z,63.88
2023-05-14T13:11:33.574Z,63.46
2023-05-14T13:14:02.320Z,63.60
2023-05-14T13:16:36.593Z,63.37
2023-05-14T13:19:04.931Z,62.55
2023-05-14T13:21:37.773Z,62.31
2023-05-14T13:24:16.335Z,62.39
2023-05-14T13:26:47.094Z,62.48
2023-05-14T13:29:15.493Z,62.93
2023-05-14T13:31:48.045Z,62.70
2023-05-14T13:34:31.294Z,62.55
2023-05-14T13:37:01.832Z,62.50
2023-05-14T13:39:33.398Z,62.54
2023-05-14T13:42:10.557Z,62.29
2023-05-14T13:44:38.749Z,61.53
2023-05-14T13:47:07.248Z,61.26
2023-05-14T13:49:35.743Z,61.27
2023-05-14T13:52:03.971Z,60.90
2023-05-14T13:54:35.028Z,60.51
2023-05-14T13:57:06.206Z,60.47
2023-05-14T13:59:38.874Z,60.27
2023-05-14T14:02:11.120Z,60.25
2023-05-14T14:04:54.777Z,60.57
2023-05-14T14:07:22.969Z,60.56
2023-05-14T14:10:00.001Z,60.53
2023-05-14T14:12:40.724Z,60.48
2023-05-14T14:15:11.194Z,60.67
2023-05-14T14:17:44.067Z,60.71
2023-05-14T14:20:27.478Z,60.76
2023-05-14T14:23:19.748Z,60.95
2023-05-14T14:25:53.228Z,61.12
2023-05-14T14:28:23.704Z,61.40
2023-05-14T14:30:54.291Z,61.52
2023-05-14T14:33:24.687Z,61.69
2023-05-14T14:35:53.031Z,61.97
2023-05-14T14:38:22.223Z,62.09
2023-05-14T14:40:50.395Z,62.01
2023-05-14T14:43:18.820Z,61.88
2023-05-14T14:45:48.892Z,61.84
2023-05-14T14:48:28.195Z,61.78
2023-05-14T14:50:56.342Z,61.51
2023-05-14T14:53:24.994Z,61.62
2023-05-14T14:55:53.702Z,61.90
2023-05-14T14:58:22.005Z,61.59
2023-05-14T15:00:58.050Z,61.64
2023-05-14T15:03:26.869Z,61.54
2023-05-14T15:05:55.308Z,61.40
2023-05-14T15:08:27.672Z,61.47
2023-05-14T15:10:59.475Z,61.70
2023-05-14T15:13:29.977Z,62.26
2023-05-14T15:15:57.972Z,62.81
2023-05-14T15:18:26.126Z,63.17
2023-05-14T15:20:54.081Z,63.37
2023-05-14T15:23:22.014Z,63.39
2023-05-14T15:25:50.113Z,63.68
2023-05-14T15:28:19.382Z,63.71
2023-05-14T15:30:47.673Z,64.45
2023-05-14T15:33:19.443Z,64.52
2023-05-14T15:35:47.566Z,64.74
2023-05-14T15:38:15.588Z,64.91
2023-05-14T15:40:43.435Z,65.58
2023-05-14T15:43:11.458Z,66.39
2023-05-14T15:45:40.827Z,66.35
2023-05-14T15:48:08.987Z,66.38
2023-05-14T15:50:37.191Z,67.02
2023-05-14T15:53:05.191Z,68.28
2023-05-14T15:55:33.480Z,69.15
2023-05-14T15:58:01.774Z,70.17
2023-05-14T16:00:29.632Z,70.63
2023-05-14T16:02:57.580Z,71.21
2023-05-14T16:05:25.573Z,72.20
2023-05-14T16:07:53.556Z,72.06
2023-05-14T16:10:21.657Z,71.90
2023-05-14T16:12:49.778Z,72.84
2023-05-14T16:15:17.809Z,73.11
2023-05-14T16:17:45.949Z,73.07
2023-05-14T16:20:13.849Z,73.61
2023-05-14T16:22:41.899Z,73.74
2023-05-14T16:25:09.767Z,73.93
2023-05-14T16:27:38.482Z,73.51
2023-05-14T16:30:11.829Z,73.57
2023-05-14T16:32:47.518Z,74.57
2023-05-14T16:35:23.231Z,76.29
2023-05-14T16:37:51.258Z,77.09
2023-05-14T16:40:20.138Z,78.03
2023-05-14T16:42:51.432Z,79.72
2023-05-14T16:45:19.473Z,80.83
2023-05-14T16:47:47.498Z,80.90
2023-05-14T16:50:15.489Z,81.86
2023-05-14T16:52:43.484Z,82.76
2023-05-14T16:55:11.641Z,83.97
2023-05-14T16:57:39.445Z,84.36
2023-05-14T17:00:09.603Z,85.34
2023-05-14T17:02:37.998Z,86.20
2023-05-14T17:05:06.422Z,87.26
2023-05-14T17:07:37.787Z,88.12
2023-05-14T17:10:06.988Z,88.46
2023-05-14T17:12:34.973Z,89.19
2023-05-14T17:15:05.350Z,89.54
2023-05-14T17:17:33.998Z,89.04
2023-05-14T17:20:02.300Z,89.47
2023-05-14T17:22:30.856Z,89.48
2023-05-14T17:24:58.737Z,90.30
2023-05-14T17:28:02.410Z,90.44
2023-05-14T17:30:33.636Z,91.13
2023-05-14T17:33:02.029Z,91.21
2023-05-14T17:35:30.604Z,91.74
2023-05-14T17:37:59.954Z,91.59
2023-05-14T17:40:30.528Z,91.50
2023-05-14T17:42:58.800Z,91.81
2023-05-14T17:45:27.303Z,92.63
2023-05-14T17:48:00.919Z,92.50
2023-05-14T17:50:29.121Z,92.63
2023-05-14T17:52:57.077Z,93.08
2023-05-14T17:55:25.943Z,93.23
2023-05-14T17:57:54.208Z,93.47
2023-05-14T18:00:22.317Z,93.12
2023-05-14T18:02:55.306Z,93.11
2023-05-14T18:05:23.423Z,93.37
2023-05-14T18:07:58.129Z,93.26
2023-05-14T18:10:29.767Z,93.54
2023-05-14T18:13:00.364Z,93.79
2023-05-14T18:15:33.472Z,93.90
2023-05-14T18:18:01.798Z,93.82
2023-05-14T18:20:33.537Z,93.61
2023-05-14T18:23:05.629Z,93.47
2023-05-14T18:25:34.266Z,94.32
2023-05-14T18:28:04.378Z,94.51
2023-05-14T18:30:32.434Z,94.28
2023-05-14T18:33:03.598Z,94.28
2023-05-14T18:35:31.771Z,94.13
2023-05-14T18:37:59.574Z,95.20
2023-05-14T18:40:27.514Z,96.20
2023-05-14T18:42:56.808Z,95.83
2023-05-14T18:45:24.830Z,95.98
2023-05-14T18:47:53.118Z,95.70
2023-05-14T18:50:21.185Z,96.00
2023-05-14T18:52:49.194Z,96.94
2023-05-14T18:55:17.805Z,97.19
2023-05-14T18:57:48.052Z,97.68
2023-05-14T19:00:15.999Z,97.88
2023-05-14T19:02:44.020Z,98.06
2023-05-14T19:05:17.376Z,97.78
2023-05-14T19:07:50.735Z,98.83
2023-05-14T19:10:18.637Z,99.01
2023-05-14T19:12:47.774Z,99.76
2023-05-14T19:15:15.972Z,99.52
2023-05-14T19:17:44.086Z,99.18
2023-05-14T19:20:12.651Z,99.56
2023-05-14T19:22:43.214Z,99.66
2023-05-14T19:25:12.562Z,100.00
2023-05-14T19:27:42.546Z,99.90
2023-05-14T19:30:10.822Z,100.00
2023-05-14T19:32:39.002Z,99.99
2023-05-14T19:35:09.629Z,99.83
2023-05-14T19:37:37.555Z,99.52
2023-05-14T19:40:08.649Z,99.42
2023-05-14T19:42:38.730Z,99.25
2023-05-14T19:45:06.806Z,99.05
2023-05-14T19:47:34.787Z,98.78
2023-05-14T19:50:02.738Z,98.67
2023-05-14T19:52:30.809Z,99.03
2023-05-14T19:54:58.737Z,98.77
2023-05-14T19:57:28.246Z,98.91
2023-05-14T20:00:00.313Z,99.07
2023-05-14T20:02:29.312Z,99.21
2023-05-14T20:04:58.012Z,99.01
2023-05-14T20:07:26.963Z,99.23
2023-05-14T20:09:55.333Z,98.83
2023-05-14T20:12:29.929Z,98.77
2023-05-14T20:14:57.817Z,98.87
2023-05-14T20:17:25.688Z,98.99
2023-05-14T20:19:53.526Z,99.34
2023-05-14T20:22:21.321Z,98.84
2023-05-14T20:24:49.179Z,99.08
2023-05-14T20:27:17.176Z,99.10
2023-05-14T20:29:46.747Z,99.36
2023-05-14T20:32:15.676Z,99.21
2023-05-14T20:34:44.915Z,99.04
2023-05-14T20:37:13.063Z,98.82
2023-05-14T20:39:40.981Z,98.90
2023-05-14T20:42:08.763Z,99.18
2023-05-14T20:44:36.677Z,99.70
2023-05-14T20:47:04.520Z,99.52
2023-05-14T20:49:32.372Z,99.52
2023-05-14T20:52:00.203Z,99.69
2023-05-14T20:54:28.285Z,99.61
2023-05-14T20:56:56.131Z,99.63
2023-05-14T20:59:24.200Z,99.55
2023-05-14T21:01:52.243Z,99.60
2023-05-14T21:04:20.414Z,99.66
2023-05-14T21:06:51.060Z,99.72
2023-05-14T21:09:23.314Z,99.69
2023-05-14T21:11:51.187Z,99.83
2023-05-14T21:14:26.969Z,99.80
2023-05-14T21:16:59.416Z,99.79
2023-05-14T21:19:27.646Z,99.90
2023-05-14T21:21:55.635Z,99.91
2023-05-14T21:24:23.739Z,99.96
2023-05-14T21:26:52.936Z,99.76
2023-05-14T21:29:21.463Z,99.88
2023-05-14T21:31:54.156Z,99.85
2023-05-14T21:34:26.177Z,99.51
2023-05-14T21:36:53.956Z,99.08
2023-05-14T21:39:21.696Z,98.88
2023-05-14T21:41:51.888Z,98.57
2023-05-14T21:44:21.717Z,98.47
2023-05-14T21:46:57.944Z,98.24
2023-05-14T21:49:25.711Z,97.99
2023-05-14T21:51:54.702Z,97.85
2023-05-14T21:54:24.016Z,97.47
2023-05-14T21:56:54.150Z,96.91
2023-05-14T21:59:22.746Z,96.51
2023-05-14T22:02:06.294Z,96.17
2023-05-14T22:04:36.302Z,95.91
2023-05-14T22:07:04.453Z,95.69
2023-05-14T22:09:32.461Z,95.48
2023-05-14T22:12:00.295Z,95.28
2023-05-14T22:14:28.808Z,94.69
2023-05-14T22:16:57.114Z,94.36
2023-05-14T22:19:26.819Z,94.03
2023-05-14T22:21:56.886Z,93.52
2023-05-14T22:24:24.978Z,92.91
2023-05-14T22:26:56.315Z,92.63
2023-05-14T22:29:24.238Z,92.05
2023-05-14T22:31:57.839Z,90.65
2023-05-14T22:34:28.352Z,90.18
2023-05-14T22:36:57.525Z,89.74
2023-05-14T22:39:25.533Z,89.35
2023-05-14T22:41:55.242Z,89.18
2023-05-14T22:44:23.363Z,88.83
2023-05-14T22:46:51.363Z,88.12
2023-05-14T22:49:19.294Z,86.88
2023-05-14T22:51:47.266Z,86.63
2023-05-14T22:54:15.135Z,85.89
2023-05-14T22:56:47.255Z,85.05
2023-05-14T22:59:15.048Z,84.49
2023-05-14T23:01:44.066Z,84.30
2023-05-14T23:04:12.052Z,84.13
2023-05-14T23:06:40.263Z,84.01
2023-05-14T23:09:08.488Z,84.01
2023-05-14T23:11:36.546Z,83.89
2023-05-14T23:14:06.705Z,83.47
2023-05-14T23:16:34.540Z,83.10
2023-05-14T23:19:02.388Z,82.63
2023-05-14T23:21:30.611Z,81.56
2023-05-14T23:24:01.160Z,81.08
2023-05-14T23:26:29.183Z,80.98
2023-05-14T23:28:57.143Z,81.08
2023-05-14T23:31:25.147Z,81.13
2023-05-14T23:33:53.077Z,80.64
2023-05-14T23:36:20.933Z,80.75
2023-05-14T23:38:48.935Z,80.20
2023-05-14T23:41:16.877Z,79.49
2023-05-14T23:43:44.793Z,78.94
2023-05-14T23:46:13.182Z,79.00
2023-05-14T23:48:41.211Z,78.53
2023-05-14T23:51:09.114Z,78.38
2023-05-14T23:53:37.758Z,77.98
2023-05-14T23:56:09.041Z,78.16
2023-05-14T23:58:36.859Z,78.25
